Time;durP1;ratioP1;P1;durP2;ratioP2;P2;SDS_P1;SDS_P2;PMS_P1;PMS_P2;Temp;Humidity;BMP_temperature;BMP_pressure;BME280_temperature;BME280_humidity;BME280_pressure;Samples;Min_cycle;Max_cycle;Signal;HPM_P1;HPM_P2
2024/03/30 00:01:27;;;;;;;10.82;3.13;;;;;;;18.91;45.31;98934.31;5017157;28;20059;-75
2024/03/30 00:03:53;;;;;;;13.00;2.75;;;;;;;18.89;45.11;98924.88;5033601;28;20033;-75
2024/03/30 00:06:18;;;;;;;15.23;2.80;;;;;;;18.89;45.08;98931.00;5050037;28;20539;-74
2024/03/30 00:08:44;;;;;;;12.38;3.10;;;;;;;18.87;45.05;98932.97;5032820;28;20037;-75
2024/03/30 00:11:09;;;;;;;15.30;3.38;;;;;;;18.85;45.06;98923.53;5050207;28;20033;-75
2024/03/30 00:13:35;;;;;;;11.70;2.85;;;;;;;18.84;45.14;98925.38;5033095;28;20025;-74
2024/03/30 00:16:10;;;;;;;14.90;2.50;;;;;;;18.84;44.99;98933.31;5017058;28;20041;-75
2024/03/30 00:18:35;;;;;;;13.25;2.53;;;;;;;18.81;45.09;98928.31;5049404;28;20032;-75
2024/03/30 00:21:03;;;;;;;12.18;2.58;;;;;;;18.78;44.99;98926.81;5034413;28;20389;-74
2024/03/30 00:23:31;;;;;;;14.47;2.57;;;;;;;18.79;44.98;98928.47;5020971;28;20051;-75
2024/03/30 00:25:57;;;;;;;12.70;2.60;;;;;;;18.77;45.15;98930.47;5037296;28;20033;-75
2024/03/30 00:28:23;;;;;;;19.05;2.88;;;;;;;18.75;45.17;98936.91;5036999;28;20029;-74
2024/03/30 00:30:49;;;;;;;8.85;2.67;;;;;;;18.76;45.30;98935.94;5020286;28;20025;-74
2024/03/30 00:33:15;;;;;;;17.13;2.80;;;;;;;18.73;45.27;98937.06;5053319;28;20036;-73
2024/03/30 00:35:41;;;;;;;15.77;2.85;;;;;;;18.72;45.21;98937.25;5052812;28;20025;-73
2024/03/30 00:38:07;;;;;;;13.38;4.25;;;;;;;18.71;45.22;98936.41;5036349;28;20202;-75
2024/03/30 00:40:33;;;;;;;18.88;6.40;;;;;;;18.68;45.17;98936.75;5052923;28;20040;-74
2024/03/30 00:43:00;;;;;;;23.65;10.05;;;;;;;18.66;45.25;98940.53;5035628;28;20037;-75
2024/03/30 00:45:25;;;;;;;27.10;12.80;;;;;;;18.65;45.33;98933.63;5052955;28;20079;-75
2024/03/30 00:47:51;;;;;;;24.58;13.27;;;;;;;18.68;45.47;98949.16;5052773;28;20025;-75
2024/03/30 00:50:16;;;;;;;25.08;13.60;;;;;;;18.67;45.46;98940.38;5052781;28;20096;-75
2024/03/30 00:52:42;;;;;;;27.75;12.90;;;;;;;18.66;45.62;98935.25;5069353;28;20459;-75
2024/03/30 00:55:07;;;;;;;27.13;11.55;;;;;;;18.61;45.59;98931.28;5036316;28;20036;-75
2024/03/30 00:57:33;;;;;;;23.52;10.00;;;;;;;18.61;45.66;98930.44;5052509;28;20483;-74
2024/03/30 00:59:58;;;;;;;25.67;10.05;;;;;;;18.59;45.82;98940.38;5068997;28;20032;-75
2024/03/30 01:02:24;;;;;;;25.88;9.43;;;;;;;18.49;45.94;98924.66;5051520;28;20166;-74
2024/03/30 01:04:49;;;;;;;15.13;8.45;;;;;;;18.44;46.05;98930.44;5035640;28;20045;-74
2024/03/30 01:07:15;;;;;;;25.90;9.07;;;;;;;18.45;46.06;98928.63;5052483;28;20492;-74
2024/03/30 01:09:40;;;;;;;24.77;8.80;;;;;;;18.38;46.25;98920.53;5052375;28;20112;-74
2024/03/30 01:12:06;;;;;;;21.13;7.93;;;;;;;18.34;46.30;98919.19;5069361;28;20496;-74
2024/03/30 01:14:34;;;;;;;20.05;7.13;;;;;;;18.37;46.51;98928.59;5068873;28;20057;-75
2024/03/30 01:17:00;;;;;;;21.17;7.97;;;;;;;18.31;46.34;98918.69;5052083;28;20029;-74
2024/03/30 01:19:26;;;;;;;16.13;6.45;;;;;;;18.27;46.70;98921.66;5052289;28;20113;-74
2024/03/30 01:21:51;;;;;;;13.15;6.47;;;;;;;18.30;46.51;98928.44;5052361;28;20029;-74
2024/03/30 01:24:17;;;;;;;18.30;6.40;;;;;;;18.31;46.40;98930.09;5035741;28;20033;-74
2024/03/30 01:27:02;;;;;;;13.52;5.38;;;;;;;18.31;46.60;98927.47;5052087;28;20103;-74
2024/03/30 01:29:27;;;;;;;16.60;5.80;;;;;;;18.26;46.70;98924.44;5035432;28;20437;-74
2024/03/30 01:31:53;;;;;;;17.27;5.40;;;;;;;18.20;46.61;98919.81;5035300;28;20045;-72
2024/03/30 01:34:21;;;;;;;10.68;4.28;;;;;;;18.20;46.70;98925.09;5051914;28;20139;-73
2024/03/30 01:36:47;;;;;;;21.20;4.75;;;;;;;18.17;46.67;98923.63;5051775;28;20033;-74
2024/03/30 01:39:12;;;;;;;17.10;4.78;;;;;;;18.15;46.76;98922.94;5051626;28;20025;-75
2024/03/30 01:41:38;;;;;;;17.50;4.43;;;;;;;18.07;46.97;98923.75;5035159;28;20050;-74
2024/03/30 01:44:04;;;;;;;10.88;3.58;;;;;;;18.08;46.73;98928.03;5034779;28;20028;-74
2024/03/30 01:46:30;;;;;;;18.75;4.15;;;;;;;18.05;46.89;98927.53;5053655;28;20110;-74
2024/03/30 01:48:55;;;;;;;9.40;3.40;;;;;;;18.05;46.98;98927.53;5034976;28;20388;-76
2024/03/30 01:51:21;;;;;;;14.88;3.42;;;;;;;18.00;47.08;98922.75;5067926;28;20033;-75
2024/03/30 01:53:47;;;;;;;14.02;3.75;;;;;;;17.96;47.20;98920.56;5051494;28;20079;-73
2024/03/30 01:56:12;;;;;;;11.38;3.30;;;;;;;17.93;46.98;98920.91;5051503;28;20373;-73
2024/03/30 01:58:38;;;;;;;22.40;3.92;;;;;;;17.90;47.01;98924.69;5051409;28;20118;-74
2024/03/30 02:01:03;;;;;;;15.70;3.25;;;;;;;17.84;47.16;98920.84;5051533;28;20029;-74
2024/03/30 02:03:32;;;;;;;16.40;3.42;;;;;;;17.84;47.04;98926.13;5051459;28;20477;-74
2024/03/30 02:05:57;;;;;;;14.68;3.17;;;;;;;17.80;47.17;98916.03;5051682;28;20025;-74
2024/03/30 02:08:23;;;;;;;12.88;3.78;;;;;;;17.77;47.17;98932.19;5034915;28;20040;-74
2024/03/30 02:10:49;;;;;;;12.50;2.63;;;;;;;17.71;47.23;98926.56;5051442;28;20091;-75
2024/03/30 02:13:16;;;;;;;10.13;2.78;;;;;;;17.66;47.33;98923.56;5051697;28;20056;-74
2024/03/30 02:15:45;;;;;;;10.75;2.92;;;;;;;17.62;47.47;98922.22;5068076;28;20061;-74
2024/03/30 02:18:10;;;;;;;;;;;;;;;17.62;47.56;98919.59;5034926;28;20025;-73
2024/03/30 02:20:36;;;;;;;8.55;2.30;;;;;;;17.59;47.66;98919.91;5067751;28;19923;-74
2024/03/30 02:23:01;;;;;;;9.32;2.67;;;;;;;17.60;47.57;98916.28;5034423;28;20021;-74
2024/03/30 02:25:27;;;;;;;10.38;2.42;;;;;;;17.53;47.34;98912.59;5052169;28;20029;-74
2024/03/30 02:27:52;;;;;;;11.35;2.50;;;;;;;17.51;47.51;98914.59;5067924;28;20036;-74
2024/03/30 02:30:28;;;;;;;9.07;2.10;;;;;;;17.52;47.43;98924.13;5051389;28;20087;-73
2024/03/30 02:32:53;;;;;;;11.55;2.40;;;;;;;17.46;47.52;98919.53;5050993;28;20032;-74
2024/03/30 02:35:19;;;;;;;12.70;2.22;;;;;;;17.46;47.54;98922.16;5051056;28;20036;-74
2024/03/30 02:37:48;;;;;;;13.05;2.45;;;;;;;17.43;47.55;98925.94;5051027;28;20110;-75
2024/03/30 02:40:14;;;;;;;14.77;3.45;;;;;;;17.39;47.61;98921.13;5034128;28;20102;-74
2024/03/30 02:42:40;;;;;;;9.57;2.30;;;;;;;17.37;47.57;98931.81;5050652;28;20498;-74
2024/03/30 02:45:10;;;;;;;10.77;2.10;;;;;;;17.33;47.63;98931.31;5033645;28;20052;-74
2024/03/30 02:47:36;;;;;;;10.55;2.47;;;;;;;17.27;47.53;98918.75;5034274;28;20029;-74
2024/03/30 02:50:02;;;;;;;13.55;2.33;;;;;;;17.30;47.63;98922.84;5050896;28;20384;-74
2024/03/30 02:52:27;;;;;;;8.63;1.95;;;;;;;17.29;47.51;98926.50;5050345;28;20134;-74
2024/03/30 02:54:53;;;;;;;9.35;2.22;;;;;;;17.23;47.55;98919.22;5051832;28;20066;-74
2024/03/30 02:57:18;;;;;;;9.95;2.17;;;;;;;17.19;47.67;98918.69;5050652;28;20021;-74
2024/03/30 02:59:44;;;;;;;8.50;2.47;;;;;;;17.20;47.63;98919.50;5050510;28;20036;-75
2024/03/30 03:02:12;;;;;;;10.25;2.17;;;;;;;17.17;47.67;98918.00;5050952;28;20068;-74
2024/03/30 03:04:38;;;;;;;9.27;2.28;;;;;;;17.13;47.93;98919.31;5051816;28;20443;-73
2024/03/30 03:07:05;;;;;;;10.32;2.42;;;;;;;17.10;47.56;98917.81;5050710;28;20090;-73
2024/03/30 03:09:30;;;;;;;6.82;2.38;;;;;;;17.11;47.77;98919.47;5050468;28;20029;-73
2024/03/30 03:11:56;;;;;;;12.98;3.60;;;;;;;17.03;47.66;98921.19;5051808;28;20098;-74
2024/03/30 03:14:21;;;;;;;13.98;5.03;;;;;;;16.99;47.87;98925.97;5050174;28;20033;-73
2024/03/30 03:16:47;;;;;;;15.63;6.32;;;;;;;16.98;47.97;98940.13;5034363;28;20033;-74
2024/03/30 03:19:12;;;;;;;18.65;6.80;;;;;;;16.93;47.86;98943.22;5033946;28;20462;-74
2024/03/30 03:21:38;;;;;;;17.50;7.25;;;;;;;16.89;48.06;98941.88;5050156;28;20484;-74
2024/03/30 03:24:03;;;;;;;19.45;7.78;;;;;;;16.83;48.14;98939.81;5050659;28;20032;-73
2024/03/30 03:26:29;;;;;;;19.75;9.13;;;;;;;16.77;48.20;98943.88;5033543;28;20131;-74
2024/03/30 03:28:54;;;;;;;23.17;8.27;;;;;;;16.73;48.23;98944.34;5017277;28;20025;-73
2024/03/30 03:31:23;;;;;;;22.25;9.13;;;;;;;16.70;48.28;98939.38;5034070;28;20082;-73
2024/03/30 03:33:51;;;;;;;19.17;7.82;;;;;;;16.70;48.25;98950.75;5050596;28;20056;-74
2024/03/30 03:36:17;;;;;;;18.77;7.28;;;;;;;16.72;48.41;98947.97;5051715;28;20063;-74
2024/03/30 03:38:42;;;;;;;18.38;7.78;;;;;;;16.70;48.38;98952.53;5050279;28;20485;-75
2024/03/30 03:41:08;;;;;;;19.48;6.55;;;;;;;16.69;48.24;98958.81;5051803;28;20033;-74
2024/03/30 03:43:36;;;;;;;19.60;6.38;;;;;;;16.63;48.33;98952.31;5033944;28;20575;-74
2024/03/30 03:46:02;;;;;;;13.40;5.40;;;;;;;16.59;48.37;98958.88;5034229;28;20057;-75
2024/03/30 03:48:28;;;;;;;14.98;4.65;;;;;;;16.56;48.28;98961.81;5033997;28;20025;-74
2024/03/30 03:50:54;;;;;;;15.65;4.90;;;;;;;16.58;48.38;98975.66;5050419;28;20087;-75
2024/03/30 03:53:19;;;;;;;16.85;5.32;;;;;;;16.57;48.27;98971.38;5033522;28;20057;-75
2024/03/30 03:55:45;;;;;;;10.68;4.60;;;;;;;16.59;48.40;98969.44;5017904;28;20048;-75
2024/03/30 03:58:10;;;;;;;15.18;4.43;;;;;;;16.55;48.38;98966.25;5021415;28;20029;-76
2024/03/30 04:00:36;;;;;;;13.15;4.50;;;;;;;16.54;48.40;98967.25;5021311;28;20044;-75
2024/03/30 04:03:01;;;;;;;15.48;4.50;;;;;;;16.58;48.24;98971.22;5037496;28;20485;-74
2024/03/30 04:05:27;;;;;;;14.30;4.45;;;;;;;16.58;48.36;98981.75;5020916;28;20502;-74
2024/03/30 04:07:52;;;;;;;17.00;4.18;;;;;;;16.58;48.42;98991.47;5054429;28;20032;-74
2024/03/30 04:10:20;;;;;;;18.23;3.67;;;;;;;16.52;48.48;98977.09;5053761;28;20032;-74
2024/03/30 04:12:47;;;;;;;14.60;4.40;;;;;;;16.58;48.46;98984.41;5037200;28;20029;-74
2024/03/30 04:15:13;;;;;;;12.63;4.30;;;;;;;16.58;48.38;98984.41;5037553;28;20033;-75
2024/03/30 04:17:38;;;;;;;15.30;4.10;;;;;;;16.64;48.25;98994.34;5037387;28;20459;-73
2024/03/30 04:20:05;;;;;;;12.50;3.70;;;;;;;16.67;48.29;98998.50;5053718;28;20021;-74
2024/03/30 04:22:30;;;;;;;15.73;3.72;;;;;;;16.69;48.23;98988.63;5055432;28;20025;-75
2024/03/30 04:24:58;;;;;;;13.18;3.53;;;;;;;16.82;47.77;98993.53;5036946;28;20055;-74
2024/03/30 04:27:24;;;;;;;17.50;4.05;;;;;;;16.92;47.61;98986.41;5020455;28;20163;-75
2024/03/30 04:29:49;;;;;;;17.63;3.75;;;;;;;17.10;46.95;98996.94;5020451;28;20033;-74
2024/03/30 04:32:15;;;;;;;14.32;3.10;;;;;;;17.66;62.33;99004.56;5060502;28;20044;-81
2024/03/30 04:34:43;;;;;;;15.02;3.33;;;;;;;18.33;60.38;98995.97;5022355;28;20057;-85
2024/03/30 04:37:08;;;;;;;12.95;2.85;;;;;;;18.63;56.00;98994.59;5037180;28;20396;-77
2024/03/30 04:39:34;;;;;;;14.10;2.97;;;;;;;19.09;52.70;98994.16;5055284;28;20029;-78
2024/03/30 04:42:01;;;;;;;13.15;3.10;;;;;;;19.36;49.93;98994.81;5020595;28;20025;-79
2024/03/30 04:44:26;;;;;;;17.25;2.70;;;;;;;19.52;48.52;98998.25;5021202;28;20045;-77
2024/03/30 04:46:52;;;;;;;11.07;2.97;;;;;;;19.76;46.96;98993.91;5018891;28;20413;-74
2024/03/30 04:49:17;;;;;;;13.32;3.05;;;;;;;20.08;45.53;98984.19;5053122;28;20025;-75
2024/03/30 04:51:43;;;;;;;12.23;2.30;;;;;;;20.48;43.87;98989.47;5037019;28;20103;-76
2024/03/30 04:54:11;;;;;;;12.07;2.58;;;;;;;20.76;42.94;98982.69;5036764;28;20049;-74
2024/03/30 04:56:37;;;;;;;14.90;2.95;;;;;;;21.08;41.69;98979.94;5036710;28;20039;-74
2024/03/30 04:59:02;;;;;;;13.95;2.65;;;;;;;21.41;40.69;98983.16;5036163;28;20417;-75
2024/03/30 05:01:28;;;;;;;10.05;2.75;;;;;;;22.15;39.11;98992.16;5036682;28;20036;-75
2024/03/30 05:03:53;;;;;;;25.35;3.50;;;;;;;23.17;47.01;98999.22;5036570;28;20137;-79
2024/03/30 05:06:19;;;;;;;19.55;3.22;;;;;;;24.10;44.29;98996.34;5036172;28;20557;-78
2024/03/30 05:08:44;;;;;;;19.23;3.05;;;;;;;24.58;42.76;98976.00;5034375;28;20044;-79
2024/03/30 05:11:10;;;;;;;28.83;3.08;;;;;;;25.16;41.28;98994.97;5051270;28;20051;-77
2024/03/30 05:13:36;;;;;;;20.77;3.20;;;;;;;25.71;38.76;98996.56;5033382;28;20043;-74
2024/03/30 05:16:02;;;;;;;26.30;3.20;;;;;;;26.31;36.32;98999.06;5035250;28;20124;-76
2024/03/30 05:18:27;;;;;;;20.50;3.22;;;;;;;26.89;34.11;98993.59;5034837;28;20163;-75
2024/03/30 05:21:00;;;;;;;18.75;3.08;;;;;;;27.35;32.70;98990.81;5051856;28;20021;-76
2024/03/30 05:23:29;;;;;;;20.83;6.25;;;;;;;28.01;31.18;98996.56;5048835;28;20102;-76
2024/03/30 05:26:05;;;;;;;32.58;9.75;;;;;;;28.97;30.87;98988.66;5049318;28;20076;-75
2024/03/30 05:28:35;;;;;;;38.95;6.57;;;;;;;29.92;31.54;98992.19;5049910;28;20037;-77
2024/03/30 05:31:05;;;;;;;41.25;7.15;;;;;;;30.61;28.93;98994.91;5032610;28;20064;-78
2024/03/30 05:33:30;;;;;;;42.22;11.48;;;;;;;31.20;29.27;98997.28;5033673;28;20037;-76
2024/03/30 05:35:56;;;;;;;19.10;7.45;;;;;;;31.52;25.38;98996.69;5023723;28;20042;-76
2024/03/30 05:38:24;;;;;;;23.80;6.63;;;;;;;31.99;23.94;98995.44;5014830;28;20116;-79
2024/03/30 05:40:51;;;;;;;18.50;6.00;;;;;;;32.41;22.85;98986.75;5034255;28;20075;-80
2024/03/30 05:43:16;;;;;;;17.52;4.97;;;;;;;32.89;22.09;98988.84;5068541;28;20029;-80
2024/03/30 05:45:46;;;;;;;18.80;5.43;;;;;;;33.08;21.68;98990.06;5069359;28;20029;-79
2024/03/30 05:48:12;;;;;;;28.30;4.88;;;;;;;33.22;21.24;98987.78;5051465;28;20506;-79
2024/03/30 05:50:37;;;;;;;23.75;4.00;;;;;;;33.15;24.74;98977.16;5040550;28;20060;-83
2024/03/30 05:53:03;;;;;;;32.05;4.00;;;;;;;33.02;24.35;98983.00;5057254;28;20049;-81
2024/03/30 05:55:29;;;;;;;26.10;4.18;;;;;;;33.05;25.92;98985.19;5054247;28;20424;-78
2024/03/30 05:57:54;;;;;;;38.30;8.32;;;;;;;32.99;25.57;98995.16;5052869;28;20118;-78
2024/03/30 06:00:20;;;;;;;21.73;5.43;;;;;;;33.09;25.08;98985.50;5035599;28;20043;-80
2024/03/30 06:02:46;;;;;;;28.80;6.50;;;;;;;33.10;24.69;98995.22;5018702;28;20108;-78
2024/03/30 06:05:15;;;;;;;19.63;4.78;;;;;;;33.36;22.17;98994.34;5051687;28;20029;-76
2024/03/30 06:07:41;;;;;;;23.92;4.07;;;;;;;33.35;21.81;98991.91;5068156;28;20032;-75
2024/03/30 06:10:08;;;;;;;27.02;4.03;;;;;;;33.28;21.74;98986.72;5034261;28;20056;-75
2024/03/30 06:12:33;;;;;;;17.85;4.57;;;;;;;33.18;21.66;99000.19;5034729;28;20052;-76
2024/03/30 06:14:59;;;;;;;18.38;3.75;;;;;;;33.28;22.00;98997.56;5051637;28;20499;-74
2024/03/30 06:17:24;;;;;;;26.00;3.78;;;;;;;33.50;21.89;98993.91;5034045;28;20037;-77
2024/03/30 06:19:50;;;;;;;20.88;4.03;;;;;;;33.54;21.89;98992.28;5033535;28;20088;-79
2024/03/30 06:22:15;;;;;;;39.33;10.68;;;;;;;33.47;21.83;98989.81;5034628;28;20025;-76
2024/03/30 06:24:41;;;;;;;61.63;17.23;;;;;;;33.43;22.71;98990.59;5067864;28;20110;-79
2024/03/30 06:27:06;;;;;;;54.55;16.38;;;;;;;33.27;23.85;98993.22;5051389;28;20029;-82
2024/03/30 06:29:33;;;;;;;71.53;19.33;;;;;;;33.11;24.79;98994.97;5053184;28;20068;-81
2024/03/30 06:31:58;;;;;;;47.63;10.13;;;;;;;32.96;23.20;98997.56;5051112;28;20037;-80
2024/03/30 06:34:24;;;;;;;48.85;11.82;;;;;;;32.94;25.30;98997.81;5051438;28;20037;-83
2024/03/30 06:36:50;;;;;;;34.92;8.20;;;;;;;32.97;24.23;98994.59;5034252;28;20444;-78
2024/03/30 06:39:15;;;;;;;40.55;9.15;;;;;;;33.01;25.04;99003.00;5068129;28;20044;-77
2024/03/30 06:44:25;;;;;;;28.90;6.00;;;;;;;33.11;23.39;99004.97;5053028;28;20124;-81
2024/03/30 06:46:50;;;;;;;38.67;6.43;;;;;;;33.14;25.09;98999.84;5068400;28;20032;-83
2024/03/30 06:49:16;;;;;;;26.10;5.90;;;;;;;33.05;21.89;99006.84;5051140;28;20045;-78
2024/03/30 06:51:41;;;;;;;23.83;4.93;;;;;;;33.10;23.32;99006.03;5051370;28;20029;-79
2024/03/30 06:54:07;;;;;;;31.35;6.43;;;;;;;32.97;23.66;99001.88;5050995;28;20060;-86
2024/03/30 06:56:32;;;;;;;29.30;5.38;;;;;;;33.09;23.92;98999.81;5050755;28;20045;-75
2024/03/30 06:58:58;;;;;;;23.52;5.13;;;;;;;33.46;23.41;99006.31;5067151;28;20039;-77
2024/03/30 07:01:25;;;;;;;17.73;5.15;;;;;;;33.90;22.91;99008.75;5050889;28;20033;-84
2024/03/30 07:03:51;;;;;;;24.13;4.40;;;;;;;34.33;22.97;99009.50;5050889;28;20037;-80
2024/03/30 07:06:16;;;;;;;21.25;3.80;;;;;;;34.78;22.05;99007.16;5049949;28;20056;-80
2024/03/30 07:08:42;;;;;;;15.38;4.03;;;;;;;35.02;20.99;99007.44;5051359;28;20456;-81
2024/03/30 07:11:07;;;;;;;22.95;4.25;;;;;;;35.21;20.81;99010.41;5050770;28;20529;-82
2024/03/30 07:13:33;;;;;;;14.95;4.20;;;;;;;35.34;20.35;98998.19;5067147;28;20037;-81
2024/03/30 07:15:58;;;;;;;14.82;4.53;;;;;;;35.48;20.20;99015.53;5066649;28;20025;-82
2024/03/30 07:18:24;;;;;;;16.55;3.78;;;;;;;35.46;20.04;99017.72;5033592;28;20036;-82
2024/03/30 07:20:50;;;;;;;17.67;4.90;;;;;;;35.38;20.30;99026.44;5067065;28;20082;-80
2024/03/30 07:23:16;;;;;;;17.95;4.30;;;;;;;35.29;19.97;99020.72;5066882;28;20024;-79
2024/03/30 07:25:41;;;;;;;16.48;4.20;;;;;;;35.37;19.98;99024.00;5066900;28;20029;-81
2024/03/30 07:28:07;;;;;;;16.00;4.15;;;;;;;35.49;19.80;99029.94;5049815;28;20033;-80
2024/03/30 07:30:39;;;;;;;19.60;4.40;;;;;;;35.47;19.99;99013.94;5069899;28;20029;-79
2024/03/30 07:33:05;;;;;;;18.77;4.15;;;;;;;35.42;19.99;99016.63;5055437;28;20029;-81
2024/03/30 07:35:32;;;;;;;17.55;4.05;;;;;;;35.41;20.01;99020.47;5071780;28;20025;-80
2024/03/30 07:38:00;;;;;;;17.80;3.95;;;;;;;35.42;19.89;99015.84;5038186;28;20482;-81
2024/03/30 07:40:26;;;;;;;14.25;4.03;;;;;;;35.39;20.01;99006.31;5055105;28;20051;-81
2024/03/30 07:42:51;;;;;;;22.13;4.50;;;;;;;35.45;20.33;99005.22;5071990;28;20037;-79
2024/03/30 07:45:17;;;;;;;20.95;4.65;;;;;;;35.46;20.27;98997.94;5054305;28;20033;-81
2024/03/30 07:47:43;;;;;;;16.15;4.20;;;;;;;35.48;19.99;98993.81;5071178;28;20025;-81
2024/03/30 07:50:08;;;;;;;14.52;3.63;;;;;;;35.56;20.44;99000.59;5054546;28;20385;-80
2024/03/30 07:52:33;;;;;;;18.40;4.45;;;;;;;35.73;20.13;98997.56;5054110;28;20055;-79
2024/03/30 07:54:59;;;;;;;19.73;4.78;;;;;;;35.88;20.27;98999.44;5054671;28;20059;-80
2024/03/30 07:57:25;;;;;;;18.63;5.18;;;;;;;36.00;20.02;98993.69;5037625;28;20060;-80
2024/03/30 07:59:51;;;;;;;17.58;4.50;;;;;;;36.06;20.03;98998.00;5037491;28;20037;-80
2024/03/30 08:02:16;;;;;;;21.50;5.28;;;;;;;36.11;20.08;98992.56;5054392;28;20487;-81
2024/03/30 08:04:42;;;;;;;17.42;4.78;;;;;;;36.17;19.86;98993.34;5070808;28;20036;-80
2024/03/30 08:07:07;;;;;;;23.20;5.63;;;;;;;36.13;19.87;98998.50;5054681;28;20043;-83
2024/03/30 08:09:33;;;;;;;18.63;5.60;;;;;;;36.14;19.96;98992.00;5053866;28;20045;-83
2024/03/30 08:11:58;;;;;;;29.77;5.45;;;;;;;36.09;19.63;99000.19;5053402;28;20496;-83
2024/03/30 08:14:24;;;;;;;22.50;4.95;;;;;;;36.02;19.36;98989.59;5053565;28;20041;-82
2024/03/30 08:16:52;;;;;;;18.45;4.85;;;;;;;36.09;19.37;98999.34;5053341;28;20068;-83
2024/03/30 08:19:17;;;;;;;18.30;5.18;;;;;;;36.24;19.20;98993.84;5053654;28;20063;-82
2024/03/30 08:21:44;;;;;;;22.60;6.03;;;;;;;36.34;19.28;98995.72;5053787;28;20063;-81
2024/03/30 08:24:12;;;;;;;18.85;4.82;;;;;;;36.39;18.95;98991.06;5053734;28;20032;-82
2024/03/30 08:26:37;;;;;;;22.80;4.70;;;;;;;36.31;19.06;98982.69;5053722;28;20090;-82
2024/03/30 08:29:03;;;;;;;16.30;4.25;;;;;;;36.37;19.08;98993.25;5070809;28;20025;-83
2024/03/30 08:31:29;;;;;;;19.42;4.28;;;;;;;36.15;19.32;98998.22;5053332;28;20041;-84
2024/03/30 08:33:56;;;;;;;15.98;4.15;;;;;;;36.22;19.25;98979.72;5053258;28;20041;-83
2024/03/30 08:36:22;;;;;;;19.15;3.85;;;;;;;36.26;18.86;98996.31;5036858;28;20193;-84
2024/03/30 08:38:48;;;;;;;19.40;4.18;;;;;;;36.16;19.36;98991.72;5036813;28;20022;-83
2024/03/30 08:41:13;;;;;;;18.92;3.75;;;;;;;36.01;19.26;98987.19;5069569;28;20079;-83
2024/03/30 08:43:39;;;;;;;19.42;4.18;;;;;;;35.95;19.44;98996.44;5053666;28;20040;-83
2024/03/30 08:46:04;;;;;;;19.70;4.13;;;;;;;35.95;19.16;99001.88;5052921;28;20039;-83
2024/03/30 08:48:32;;;;;;;16.98;3.72;;;;;;;36.02;18.85;98986.88;5070696;28;20025;-82
2024/03/30 08:50:57;;;;;;;16.52;3.58;;;;;;;36.32;18.45;98984.31;5070468;28;20415;-84
2024/03/30 08:53:23;;;;;;;13.23;3.42;;;;;;;36.46;18.47;98988.03;5070232;28;20051;-82
2024/03/30 08:55:48;;;;;;;16.38;3.83;;;;;;;36.30;18.75;98981.06;5069288;28;20106;-83
2024/03/30 08:58:14;;;;;;;13.77;3.17;;;;;;;36.18;18.54;98984.09;5070098;28;20036;-83
2024/03/30 09:00:39;;;;;;;15.70;3.47;;;;;;;36.14;18.76;98974.88;5070060;28;20069;-83
2024/03/30 09:03:05;;;;;;;24.58;3.70;;;;;;;36.13;18.78;98981.41;5052785;28;20554;-82
2024/03/30 09:05:30;;;;;;;15.00;3.20;;;;;;;36.03;18.67;98974.13;5053156;28;20025;-82
2024/03/30 09:07:56;;;;;;;19.02;3.38;;;;;;;35.90;18.75;98964.69;5069972;28;20033;-82
2024/03/30 09:10:24;;;;;;;14.27;2.95;;;;;;;35.75;18.52;98973.69;5053320;28;20032;-82
2024/03/30 09:12:49;;;;;;;;;;;;;;;35.64;18.67;98972.88;5069880;28;20036;-82
2024/03/30 09:15:14;;;;;;;20.58;3.50;;;;;;;35.61;18.92;98970.72;5052290;28;19917;-80
2024/03/30 09:17:40;;;;;;;16.67;3.17;;;;;;;35.66;18.63;98968.00;5069614;28;20039;-81
2024/03/30 09:20:06;;;;;;;13.95;2.90;;;;;;;35.64;18.68;98970.16;5069464;28;20029;-82
2024/03/30 09:22:32;;;;;;;16.75;3.55;;;;;;;35.31;18.98;98968.91;5036733;28;20029;-81
2024/03/30 09:24:58;;;;;;;18.15;2.92;;;;;;;35.27;19.08;98965.13;5052435;28;20049;-82
2024/03/30 09:27:23;;;;;;;16.90;3.10;;;;;;;35.13;18.75;98962.94;5052503;28;20112;-81
2024/03/30 09:29:50;;;;;;;12.25;2.63;;;;;;;35.09;18.46;98958.31;5069533;28;20116;-81
2024/03/30 09:32:16;;;;;;;12.50;2.80;;;;;;;35.05;19.22;98954.56;5052648;28;20049;-80
2024/03/30 09:34:42;;;;;;;13.88;3.22;;;;;;;34.93;18.82;98955.66;5069191;28;20083;-80
2024/03/30 09:37:12;;;;;;;14.85;3.00;;;;;;;34.67;18.82;98949.38;5068906;28;20040;-80
2024/03/30 09:39:39;;;;;;;12.55;2.63;;;;;;;34.41;19.00;98957.50;5053072;28;20029;-81
2024/03/30 09:42:08;;;;;;;13.80;2.63;;;;;;;34.15;19.50;98948.44;5052331;28;20381;-82
2024/03/30 09:44:36;;;;;;;13.82;2.63;;;;;;;33.95;19.39;98941.06;5052885;28;20040;-80
2024/03/30 09:47:03;;;;;;;11.65;2.53;;;;;;;33.86;19.34;98946.22;5069510;28;20134;-81
2024/03/30 09:49:31;;;;;;;15.50;2.83;;;;;;;33.87;19.15;98939.72;5036260;28;20511;-80
2024/03/30 09:51:57;;;;;;;15.80;2.97;;;;;;;33.81;19.72;98932.66;5068357;28;20500;-80
2024/03/30 09:54:23;;;;;;;15.25;2.42;;;;;;;33.85;20.12;98938.34;5052440;28;20028;-81
2024/03/30 09:56:48;;;;;;;17.20;2.45;;;;;;;33.59;20.22;98926.56;5052312;28;20377;-81
2024/03/30 09:59:14;;;;;;;17.98;2.97;;;;;;;33.58;20.52;98923.06;5051933;28;20127;-80
2024/03/30 10:01:39;;;;;;;17.67;2.80;;;;;;;33.38;20.52;98929.16;5069600;28;20113;-81
2024/03/30 10:04:05;;;;;;;15.07;2.60;;;;;;;33.38;20.44;98920.25;5068659;28;20400;-79
2024/03/30 10:06:34;;;;;;;10.93;2.45;;;;;;;33.31;20.68;98929.41;5051525;28;20044;-81
2024/03/30 10:09:02;;;;;;;15.07;2.53;;;;;;;33.07;20.92;98922.75;5034702;28;20547;-81
2024/03/30 10:11:32;;;;;;;16.55;2.92;;;;;;;33.10;20.76;98919.50;5051474;28;20040;-80
2024/03/30 10:14:12;;;;;;;15.30;2.70;;;;;;;32.96;21.55;98921.84;5035259;28;20404;-81
2024/03/30 10:16:38;;;;;;;15.05;2.72;;;;;;;32.71;21.48;98920.59;5034794;28;20036;-81
2024/03/30 10:19:03;;;;;;;13.05;2.63;;;;;;;32.64;21.62;98923.50;5068138;28;20025;-79
2024/03/30 10:21:29;;;;;;;18.50;2.88;;;;;;;32.58;21.99;98927.19;5051005;28;20076;-80
2024/03/30 10:23:55;;;;;;;13.18;2.45;;;;;;;32.40;22.34;98928.41;5034880;28;20037;-82
2024/03/30 10:26:23;;;;;;;16.08;3.08;;;;;;;32.32;22.64;98918.03;5034881;28;20567;-81
2024/03/30 10:28:49;;;;;;;18.65;3.08;;;;;;;32.18;22.80;98922.22;5034366;28;20043;-81
2024/03/30 10:31:15;;;;;;;13.13;2.75;;;;;;;32.16;22.70;98913.56;5051339;28;20033;-81
2024/03/30 10:33:41;;;;;;;13.90;2.58;;;;;;;32.10;22.88;98910.81;5051159;28;20107;-81
2024/03/30 10:36:10;;;;;;;22.58;3.00;;;;;;;31.98;22.95;98915.50;5050576;28;20037;-81
2024/03/30 10:38:37;;;;;;;14.90;3.10;;;;;;;31.78;23.32;98910.69;5051293;28;20024;-82
2024/03/30 10:41:04;;;;;;;;;;;;;;;31.74;23.64;98905.00;5034800;28;20035;-79
2024/03/30 10:43:30;;;;;;;12.05;2.90;;;;;;;31.70;23.93;98906.53;5051468;28;20428;-81
2024/03/30 10:45:55;;;;;;;15.05;2.55;;;;;;;31.61;24.02;98902.66;5067614;28;20037;-82
2024/03/30 10:48:21;;;;;;;13.35;2.90;;;;;;;31.52;24.09;98902.25;5050907;28;20455;-81
2024/03/30 10:50:47;;;;;;;20.02;3.10;;;;;;;31.35;24.52;98901.50;5034439;28;20039;-83
2024/03/30 10:53:12;;;;;;;12.77;2.63;;;;;;;31.29;24.71;98897.09;5050809;28;20044;-80
2024/03/30 10:55:38;;;;;;;12.57;3.10;;;;;;;31.18;25.24;98896.94;5051190;28;20025;-81
2024/03/30 10:58:04;;;;;;;14.82;2.75;;;;;;;31.15;25.38;98907.41;5067609;28;20055;-81
2024/03/30 11:00:30;;;;;;;17.83;3.03;;;;;;;31.01;25.44;98905.06;5034273;28;20033;-81
2024/03/30 11:02:56;;;;;;;13.27;2.85;;;;;;;30.87;25.65;98895.66;5067704;28;20037;-81
2024/03/30 11:05:28;;;;;;;21.38;3.35;;;;;;;30.77;25.72;98892.78;5050358;28;20037;-82
2024/03/30 11:07:53;;;;;;;15.50;2.95;;;;;;;30.73;25.85;98895.16;5034474;28;20091;-81
2024/03/30 11:10:19;;;;;;;12.18;3.20;;;;;;;30.65;26.02;98892.91;5051153;28;20033;-81
2024/03/30 11:12:44;;;;;;;15.73;3.40;;;;;;;30.52;25.99;98893.19;5050726;28;20031;-80
2024/03/30 11:15:10;;;;;;;13.63;3.30;;;;;;;30.35;26.13;98882.38;5051149;28;20579;-80
2024/03/30 11:17:42;;;;;;;17.35;3.50;;;;;;;30.25;26.41;98883.00;5068067;28;20484;-80
2024/03/30 11:20:11;;;;;;;17.63;3.75;;;;;;;30.19;26.46;98882.13;5050849;28;20032;-81
2024/03/30 11:22:54;;;;;;;18.38;3.78;;;;;;;30.06;27.06;98885.09;5050517;28;20496;-80
2024/03/30 11:25:25;;;;;;;20.63;3.47;;;;;;;29.87;27.27;98869.16;5052293;28;20029;-81